createdAt,value
2022-11-29T00:00:28.475Z,9.462955
2022-11-29T00:01:28.475Z,9.462952
2022-11-29T00:02:29.264Z,9.462927
2022-11-29T00:03:28.566Z,9.462924
2022-11-29T00:04:28.494Z,9.462907
2022-11-29T00:05:28.435Z,9.462905
2022-11-29T00:06:28.444Z,9.462905
2022-11-29T00:07:28.516Z,9.462917
2022-11-29T00:08:29.052Z,9.462921
2022-11-29T00:09:28.411Z,9.462959
2022-11-29T00:10:29.150Z,9.462963
2022-11-29T00:11:28.407Z,9.462949
2022-11-29T00:12:28.397Z,9.462955
2022-11-29T00:13:28.397Z,9.462923
2022-11-29T00:14:28.406Z,9.462899
2022-11-29T00:15:28.793Z,9.462960
2022-11-29T00:16:28.453Z,9.462942
2022-11-29T00:17:28.360Z,9.462959
2022-11-29T00:18:28.423Z,9.462975
2022-11-29T00:19:28.381Z,9.462979
2022-11-29T00:20:28.364Z,9.462957
2022-11-29T00:21:28.361Z,9.462960
2022-11-29T00:22:28.352Z,9.462979
2022-11-29T00:23:29.200Z,9.462980
2022-11-29T00:24:28.504Z,9.462992
2022-11-29T00:25:28.322Z,9.462974
2022-11-29T00:26:28.502Z,9.463033
2022-11-29T00:27:28.299Z,9.463037
2022-11-29T00:28:28.751Z,9.463043
2022-11-29T00:29:28.286Z,9.462996
2022-11-29T00:30:28.360Z,9.462992
2022-11-29T00:31:28.288Z,9.463004
2022-11-29T00:32:28.280Z,9.462993
2022-11-29T00:33:28.424Z,9.463016
2022-11-29T00:34:28.292Z,9.462996
2022-11-29T00:35:28.283Z,9.462990
2022-11-29T00:36:28.266Z,9.463009
2022-11-29T00:37:28.249Z,9.463060
2022-11-29T00:38:28.362Z,9.463026
2022-11-29T00:39:28.252Z,9.462877
2022-11-29T00:40:28.237Z,9.462976
2022-11-29T00:41:28.212Z,9.463025
2022-11-29T00:42:28.210Z,9.463092
2022-11-29T00:43:28.209Z,9.463064
2022-11-29T00:44:28.225Z,9.462917
2022-11-29T00:45:28.199Z,9.462959
2022-11-29T00:46:28.240Z,9.463082
2022-11-29T00:47:28.171Z,9.463015
2022-11-29T00:48:28.200Z,9.463006
2022-11-29T00:49:28.600Z,9.463063
2022-11-29T00:50:28.159Z,9.463061
2022-11-29T00:51:28.180Z,9.463110
2022-11-29T00:52:28.146Z,9.463161
2022-11-29T00:53:28.774Z,9.463048
2022-11-29T00:54:28.148Z,9.463027
2022-11-29T00:55:28.119Z,9.463022
2022-11-29T00:56:28.529Z,9.462997
2022-11-29T00:57:28.127Z,9.462997
2022-11-29T00:58:28.124Z,9.462923
2022-11-29T00:59:28.115Z,9.462963
2022-11-29T01:00:28.101Z,9.463045
2022-11-29T01:01:28.163Z,9.462992
2022-11-29T01:02:28.218Z,9.463032
2022-11-29T01:03:28.089Z,9.463115
2022-11-29T01:04:28.058Z,9.463284
2022-11-29T01:05:28.075Z,9.463274
2022-11-29T01:06:28.082Z,9.463083
2022-11-29T01:07:28.107Z,9.463067
2022-11-29T01:08:28.684Z,9.463169
2022-11-29T01:09:28.050Z,9.463128
2022-11-29T01:10:28.022Z,9.463153
2022-11-29T01:11:28.041Z,9.463186
2022-11-29T01:12:28.023Z,9.463186
2022-11-29T01:13:28.042Z,9.463205
2022-11-29T01:14:28.006Z,9.463207
2022-11-29T01:15:28.013Z,9.463137
2022-11-29T01:16:28.176Z,9.463083
2022-11-29T01:17:27.998Z,9.463030
2022-11-29T01:18:27.984Z,9.463203
2022-11-29T01:19:27.973Z,9.463110
2022-11-29T01:20:27.970Z,9.462922
2022-11-29T01:21:27.959Z,9.463120
2022-11-29T01:22:28.624Z,9.463021
2022-11-29T01:23:28.012Z,9.462961
2022-11-29T01:24:27.932Z,9.462824
2022-11-29T01:25:27.948Z,9.462602
2022-11-29T01:26:28.417Z,9.462690
2022-11-29T01:27:27.928Z,9.462770
2022-11-29T01:28:27.935Z,9.462775
2022-11-29T01:29:27.913Z,9.462944
2022-11-29T01:30:27.962Z,9.463017
2022-11-29T01:31:28.327Z,9.462873
2022-11-29T01:32:27.892Z,9.462902
2022-11-29T01:33:27.875Z,9.462850
2022-11-29T01:34:27.943Z,9.462851
2022-11-29T01:35:27.871Z,9.462813
2022-11-29T01:36:27.893Z,9.463015
2022-11-29T01:37:27.946Z,9.462941
2022-11-29T01:38:27.858Z,9.462932
2022-11-29T01:39:27.886Z,9.463055
2022-11-29T01:40:28.889Z,9.462922
2022-11-29T01:41:27.833Z,9.463109
2022-11-29T01:42:27.840Z,9.463056
2022-11-29T01:43:27.825Z,9.463015
2022-11-29T01:44:27.818Z,9.463028
2022-11-29T01:45:28.009Z,9.463017
2022-11-29T01:46:27.898Z,9.463075
2022-11-29T01:47:27.789Z,9.463021
2022-11-29T01:48:27.810Z,9.463014
2022-11-29T01:49:27.788Z,9.462994
2022-11-29T01:50:27.777Z,9.462950
2022-11-29T01:51:29.171Z,9.462968
2022-11-29T01:52:27.762Z,9.463029
2022-11-29T01:53:27.752Z,9.463026
2022-11-29T01:54:27.766Z,9.463032
2022-11-29T01:55:27.765Z,9.463066
2022-11-29T01:56:28.563Z,9.463059
2022-11-29T01:57:27.742Z,9.463055
2022-11-29T01:58:27.724Z,9.463064
2022-11-29T01:59:27.723Z,9.462988
2022-11-29T02:00:27.709Z,9.462952
2022-11-29T02:01:27.764Z,9.463032
2022-11-29T02:02:27.978Z,9.462952
2022-11-29T02:03:27.679Z,9.463045
2022-11-29T02:04:27.706Z,9.463185
2022-11-29T02:05:27.680Z,9.463068
2022-11-29T02:06:27.771Z,9.462744
2022-11-29T02:07:28.208Z,9.462961
2022-11-29T02:08:27.661Z,9.462924
2022-11-29T02:09:27.641Z,9.462977
2022-11-29T02:10:28.331Z,9.462893
2022-11-29T02:11:27.664Z,9.462840
2022-11-29T02:12:27.649Z,9.462893
2022-11-29T02:13:27.630Z,9.462891
2022-11-29T02:14:27.622Z,9.462876
2022-11-29T02:15:27.744Z,9.462875
2022-11-29T02:16:27.647Z,9.462888
2022-11-29T02:17:28.027Z,9.462923
2022-11-29T02:18:27.593Z,9.462919
2022-11-29T02:19:27.591Z,9.462927
2022-11-29T02:20:27.608Z,9.462929
2022-11-29T02:21:27.568Z,9.462964
2022-11-29T02:22:27.621Z,9.463014
2022-11-29T02:23:28.746Z,9.463017
2022-11-29T02:24:27.566Z,9.463006
2022-11-29T02:25:27.551Z,9.462989
2022-11-29T02:26:27.559Z,9.462934
2022-11-29T02:27:27.568Z,9.462943
2022-11-29T02:28:27.530Z,9.462955
2022-11-29T02:29:28.205Z,9.462976
2022-11-29T02:30:27.529Z,9.462934
2022-11-29T02:31:27.511Z,9.462964
2022-11-29T02:32:27.503Z,9.462941
2022-11-29T02:33:27.492Z,9.462974
2022-11-29T02:34:27.521Z,9.463016
2022-11-29T02:35:27.476Z,9.463078
2022-11-29T02:36:27.496Z,9.462917
2022-11-29T02:37:27.474Z,9.462864
2022-11-29T02:38:27.464Z,9.462962
2022-11-29T02:39:27.484Z,9.462976
2022-11-29T02:40:27.886Z,9.462993
2022-11-29T02:41:27.439Z,9.462990
2022-11-29T02:42:27.456Z,9.462983
2022-11-29T02:43:27.490Z,9.462975
2022-11-29T02:44:27.440Z,9.463000
2022-11-29T02:45:27.423Z,9.462982
2022-11-29T02:46:27.462Z,9.462993
2022-11-29T02:47:27.402Z,9.462996
2022-11-29T02:48:27.411Z,9.462979
2022-11-29T02:49:28.007Z,9.462968
2022-11-29T02:50:27.389Z,9.462973
2022-11-29T02:51:27.393Z,9.462983
2022-11-29T02:52:27.418Z,9.462959
2022-11-29T02:53:27.362Z,9.462974
2022-11-29T02:54:27.379Z,9.462988
2022-11-29T02:55:27.363Z,9.462986
2022-11-29T02:56:27.360Z,9.462992
2022-11-29T02:57:27.357Z,9.462989
2022-11-29T02:58:28.091Z,9.462973
2022-11-29T02:59:27.357Z,9.463002
2022-11-29T03:00:27.321Z,9.462981
2022-11-29T03:01:27.393Z,9.462968
2022-11-29T03:02:27.435Z,9.463004
2022-11-29T03:03:27.293Z,9.463049
2022-11-29T03:04:27.325Z,9.462951
2022-11-29T03:05:27.294Z,9.463001
2022-11-29T03:06:27.298Z,9.462958
2022-11-29T03:07:27.428Z,9.462926
2022-11-29T03:08:27.268Z,9.463046
2022-11-29T03:09:27.258Z,9.463031
2022-11-29T03:10:27.283Z,9.462946
2022-11-29T03:11:28.020Z,9.462997
2022-11-29T03:12:27.259Z,9.462951
2022-11-29T03:13:27.674Z,9.462951
2022-11-29T03:14:27.970Z,9.463002
2022-11-29T03:15:27.354Z,9.462996
2022-11-29T03:16:27.218Z,9.462979
2022-11-29T03:17:27.235Z,9.462958
2022-11-29T03:18:27.228Z,9.462978
2022-11-29T03:19:27.201Z,9.462975
2022-11-29T03:20:27.199Z,9.462963
2022-11-29T03:21:27.176Z,9.462964
2022-11-29T03:22:27.213Z,9.462980
2022-11-29T03:23:27.160Z,9.462989
2022-11-29T03:24:27.178Z,9.462964
2022-11-29T03:25:27.170Z,9.462951
2022-11-29T03:26:27.154Z,9.462988
2022-11-29T03:27:27.148Z,9.462993
2022-11-29T03:28:28.298Z,9.462971
2022-11-29T03:29:27.127Z,9.462946
2022-11-29T03:30:27.129Z,9.462974
2022-11-29T03:31:27.474Z,9.463001
2022-11-29T03:32:27.151Z,9.462981
2022-11-29T03:33:27.941Z,9.462933
2022-11-29T03:34:27.141Z,9.462944
2022-11-29T03:35:27.089Z,9.462971
2022-11-29T03:36:27.198Z,9.462957
2022-11-29T03:37:27.083Z,9.463016
2022-11-29T03:38:27.075Z,9.463017
2022-11-29T03:39:27.145Z,9.462996
2022-11-29T03:40:27.058Z,9.462986
2022-11-29T03:41:27.058Z,9.462986
2022-11-29T03:42:27.080Z,9.462959
2022-11-29T03:43:27.038Z,9.462949
2022-11-29T03:44:27.051Z,9.462952
2022-11-29T03:45:27.463Z,9.462928
2022-11-29T03:46:27.120Z,9.462930
2022-11-29T03:47:27.056Z,9.462944
2022-11-29T03:48:27.012Z,9.462933
2022-11-29T03:49:27.772Z,9.462880
2022-11-29T03:50:27.010Z,9.462932
2022-11-29T03:51:26.995Z,9.462944
2022-11-29T03:52:26.985Z,9.462928
2022-11-29T03:53:26.967Z,9.462972
2022-11-29T03:54:27.078Z,9.462955
2022-11-29T03:55:27.003Z,9.462959
2022-11-29T03:56:27.206Z,9.463004
2022-11-29T03:57:26.955Z,9.462929
2022-11-29T03:58:26.944Z,9.463021
2022-11-29T03:59:26.941Z,9.462966
2022-11-29T04:00:26.969Z,9.462984
2022-11-29T04:01:27.391Z,9.463011
2022-11-29T04:02:26.997Z,9.462968
2022-11-29T04:03:26.935Z,9.462917
2022-11-29T04:04:26.922Z,9.462874
2022-11-29T04:05:26.922Z,9.462920
2022-11-29T04:06:26.896Z,9.462947
2022-11-29T04:07:26.940Z,9.462937
2022-11-29T04:08:26.883Z,9.462958
2022-11-29T04:09:27.576Z,9.462957
2022-11-29T04:10:26.881Z,9.462953
2022-11-29T04:11:26.855Z,9.462955
2022-11-29T04:12:26.868Z,9.462891
2022-11-29T04:13:26.853Z,9.462923
2022-11-29T04:14:26.862Z,9.462949
2022-11-29T04:15:28.032Z,9.462939
2022-11-29T04:16:26.827Z,9.462929
2022-11-29T04:17:26.815Z,9.462955
2022-11-29T04:18:26.830Z,9.462950
2022-11-29T04:19:26.846Z,9.463024
2022-11-29T04:20:26.816Z,9.463044
2022-11-29T04:21:26.801Z,9.462911
2022-11-29T04:22:26.788Z,9.462997
2022-11-29T04:23:26.772Z,9.463034
2022-11-29T04:24:26.792Z,9.463020
2022-11-29T04:25:27.045Z,9.462989
2022-11-29T04:26:30.821Z,9.462915
2022-11-29T04:27:27.764Z,9.462945
2022-11-29T04:28:26.742Z,9.462996
2022-11-29T04:29:26.761Z,9.463069
2022-11-29T04:30:26.732Z,9.463029
2022-11-29T04:31:26.853Z,9.462938
2022-11-29T04:32:26.731Z,9.463092
2022-11-29T04:33:26.721Z,9.463032
2022-11-29T04:34:26.718Z,9.462885
2022-11-29T04:35:26.735Z,9.462890
2022-11-29T04:36:26.893Z,9.462987
2022-11-29T04:37:26.715Z,9.463033
2022-11-29T04:38:26.706Z,9.463011
2022-11-29T04:39:26.682Z,9.463035
2022-11-29T04:40:26.687Z,9.463041
2022-11-29T04:41:26.723Z,9.463059
2022-11-29T04:42:26.656Z,9.463022
2022-11-29T04:43:26.688Z,9.463016
2022-11-29T04:44:26.653Z,9.463029
2022-11-29T04:45:26.640Z,9.463013
2022-11-29T04:46:26.731Z,9.463017
2022-11-29T04:47:26.831Z,9.463016
2022-11-29T04:48:26.608Z,9.463000
2022-11-29T04:49:26.624Z,9.463034
2022-11-29T04:50:26.595Z,9.463087
2022-11-29T04:51:27.079Z,9.463075
2022-11-29T04:52:26.607Z,9.463092
2022-11-29T04:53:26.585Z,9.463093
2022-11-29T04:54:26.566Z,9.463085
2022-11-29T04:55:30.915Z,9.463080
2022-11-29T04:56:26.998Z,9.463056
2022-11-29T04:57:26.930Z,9.463101
2022-11-29T04:58:26.557Z,9.463071
2022-11-29T04:59:26.556Z,9.463053
2022-11-29T05:00:26.539Z,9.463086
2022-11-29T05:01:26.610Z,9.463100
2022-11-29T05:02:26.569Z,9.463113
2022-11-29T05:03:27.537Z,9.463071
2022-11-29T05:04:26.518Z,9.463007
2022-11-29T05:05:26.597Z,9.463040
2022-11-29T05:06:26.506Z,9.463052
2022-11-29T05:07:26.542Z,9.463031
2022-11-29T05:08:26.496Z,9.463038
2022-11-29T05:09:27.701Z,9.463037
2022-11-29T05:10:26.508Z,9.462973
2022-11-29T05:11:27.135Z,9.462984
2022-11-29T05:12:26.463Z,9.463077
2022-11-29T05:13:26.462Z,9.463022
2022-11-29T05:14:26.452Z,9.463049
2022-11-29T05:15:26.453Z,9.463001
2022-11-29T05:16:26.582Z,9.463049
2022-11-29T05:17:29.357Z,9.463031
2022-11-29T05:18:26.506Z,9.462991
2022-11-29T05:19:26.410Z,9.463022
2022-11-29T05:20:26.418Z,9.462963
2022-11-29T05:21:26.427Z,9.462956
2022-11-29T05:22:26.409Z,9.462964
2022-11-29T05:23:26.436Z,9.463041
2022-11-29T05:24:26.583Z,9.463067
2022-11-29T05:25:26.374Z,9.463056
2022-11-29T05:26:26.385Z,9.462988
2022-11-29T05:27:26.378Z,9.463041
2022-11-29T05:28:26.381Z,9.463099
2022-11-29T05:29:26.363Z,9.463053
2022-11-29T05:30:27.018Z,9.463005
2022-11-29T05:31:26.410Z,9.462916
2022-11-29T05:32:26.344Z,9.462962
2022-11-29T05:33:26.342Z,9.463045
2022-11-29T05:34:31.706Z,9.462997
2022-11-29T05:35:27.767Z,9.463096
2022-11-29T05:36:26.331Z,9.463026
2022-11-29T05:37:26.299Z,9.462998
2022-11-29T05:38:26.322Z,9.462936
2022-11-29T05:39:26.311Z,9.462952
2022-11-29T05:40:26.406Z,9.463004
2022-11-29T05:41:26.322Z,9.462987
2022-11-29T05:42:26.312Z,9.462991
2022-11-29T05:43:26.820Z,9.463031
2022-11-29T05:44:26.262Z,9.462938
2022-11-29T05:45:26.260Z,9.463059
2022-11-29T05:46:26.317Z,9.462896
2022-11-29T05:47:31.184Z,9.463103
2022-11-29T05:48:27.275Z,9.462994
2022-11-29T05:49:26.219Z,9.462960
2022-11-29T05:50:26.968Z,9.463104
2022-11-29T05:51:26.639Z,9.463129
2022-11-29T05:52:26.631Z,9.463068
2022-11-29T05:53:47.207Z,9.463056
2022-11-29T05:54:26.193Z,9.462935
2022-11-29T05:55:26.223Z,9.462898
2022-11-29T05:56:26.215Z,9.462955
2022-11-29T05:57:26.161Z,9.462928
2022-11-29T05:58:30.329Z,9.462978
2022-11-29T05:59:26.178Z,9.462958
2022-11-29T06:00:26.195Z,9.462965
2022-11-29T06:01:26.222Z,9.462983
2022-11-29T06:02:26.300Z,9.462977
2022-11-29T06:03:26.134Z,9.463007
2022-11-29T06:04:26.137Z,9.462996
2022-11-29T06:05:26.140Z,9.462983
2022-11-29T06:06:26.142Z,9.462947
2022-11-29T06:07:28.085Z,9.462973
2022-11-29T06:08:26.116Z,9.462994
2022-11-29T06:09:26.101Z,9.462988
2022-11-29T06:10:26.115Z,9.463001
2022-11-29T06:11:26.112Z,9.462960
2022-11-29T06:12:26.093Z,9.462984
2022-11-29T06:13:26.126Z,9.462935
2022-11-29T06:14:26.734Z,9.462954
2022-11-29T06:15:26.085Z,9.462962
2022-11-29T06:16:26.151Z,9.462969
2022-11-29T06:17:26.055Z,9.462926
2022-11-29T06:18:26.059Z,9.463014
2022-11-29T06:19:26.018Z,9.462968
2022-11-29T06:20:26.034Z,9.463000
2022-11-29T06:21:26.036Z,9.462974
2022-11-29T06:22:26.004Z,9.462951
2022-11-29T06:23:25.997Z,9.462992
2022-11-29T06:24:26.335Z,9.462974
2022-11-29T06:25:25.971Z,9.462857
2022-11-29T06:26:26.425Z,9.462865
2022-11-29T06:27:25.998Z,9.462953
2022-11-29T06:28:25.997Z,9.462973
2022-11-29T06:29:25.957Z,9.462938
2022-11-29T06:30:26.025Z,9.462875
2022-11-29T06:31:26.000Z,9.462921
2022-11-29T06:32:26.392Z,9.462931
2022-11-29T06:33:25.933Z,9.462909
2022-11-29T06:34:30.496Z,9.462945
2022-11-29T06:35:26.914Z,9.462964
2022-11-29T06:36:25.918Z,9.462932
2022-11-29T06:37:25.914Z,9.462970
2022-11-29T06:38:25.920Z,9.462978
2022-11-29T06:39:25.877Z,9.462990
2022-11-29T06:40:25.880Z,9.462985
2022-11-29T06:41:26.646Z,9.462980
2022-11-29T06:42:25.883Z,9.463011
2022-11-29T06:43:25.888Z,9.462992
2022-11-29T06:44:25.870Z,9.462990
2022-11-29T06:45:25.843Z,9.462990
2022-11-29T06:46:25.954Z,9.463009
2022-11-29T06:47:25.846Z,9.462994
2022-11-29T06:48:25.859Z,9.463018
2022-11-29T06:49:25.817Z,9.462998
2022-11-29T06:50:25.828Z,9.463002
2022-11-29T06:51:25.800Z,9.462956
2022-11-29T06:52:25.803Z,9.463020
2022-11-29T06:53:25.873Z,9.463013
2022-11-29T06:54:25.800Z,9.463084
2022-11-29T06:55:26.688Z,9.463024
2022-11-29T06:56:25.794Z,9.462964
2022-11-29T06:57:25.776Z,9.462979
2022-11-29T06:58:25.774Z,9.463017
2022-11-29T06:59:25.769Z,9.463024
2022-11-29T07:00:25.747Z,9.463045
2022-11-29T07:01:26.019Z,9.462970
2022-11-29T07:02:25.883Z,9.463013
2022-11-29T07:03:25.727Z,9.462988
2022-11-29T07:04:25.736Z,9.463006
2022-11-29T07:05:25.731Z,9.463012
2022-11-29T07:06:26.141Z,9.463032
2022-11-29T07:07:25.813Z,9.463009
2022-11-29T07:08:25.725Z,9.463008
2022-11-29T07:09:25.685Z,9.463059
2022-11-29T07:10:25.699Z,9.463055
2022-11-29T07:11:25.692Z,9.463037
2022-11-29T07:12:25.701Z,9.463023
2022-11-29T07:13:25.680Z,9.463019
2022-11-29T07:14:25.683Z,9.463003
2022-11-29T07:15:25.677Z,9.463005
2022-11-29T07:16:25.703Z,9.462994
2022-11-29T07:17:25.664Z,9.463028
2022-11-29T07:18:25.641Z,9.463066
2022-11-29T07:19:25.614Z,9.463032
2022-11-29T07:20:25.633Z,9.463018
2022-11-29T07:21:25.619Z,9.463024
2022-11-29T07:22:26.354Z,9.463048
2022-11-29T07:23:25.602Z,9.463117
2022-11-29T07:24:25.638Z,9.463126
2022-11-29T07:25:25.580Z,9.463019
2022-11-29T07:26:25.600Z,9.463093
2022-11-29T07:27:25.559Z,9.463096
2022-11-29T07:28:25.970Z,9.463084
2022-11-29T07:29:25.561Z,9.463119
2022-11-29T07:30:25.577Z,9.463144
2022-11-29T07:31:25.627Z,9.463042
2022-11-29T07:32:25.539Z,9.463023
2022-11-29T07:33:25.663Z,9.463143
2022-11-29T07:34:25.597Z,9.463204
2022-11-29T07:35:25.558Z,9.463127
2022-11-29T07:36:25.551Z,9.463006
2022-11-29T07:37:25.524Z,9.463008
2022-11-29T07:38:25.490Z,9.463129
2022-11-29T07:39:26.277Z,9.463107
2022-11-29T07:40:25.502Z,9.463021
2022-11-29T07:41:25.516Z,9.463102
2022-11-29T07:42:25.475Z,9.463159
2022-11-29T07:43:25.780Z,9.463358
2022-11-29T07:44:25.726Z,9.463145
2022-11-29T07:45:25.488Z,9.463118
2022-11-29T07:46:25.537Z,9.463141
2022-11-29T07:47:25.520Z,9.463083
2022-11-29T07:48:25.443Z,9.463151
2022-11-29T07:49:25.439Z,9.463124
2022-11-29T07:50:26.266Z,9.463092
2022-11-29T07:51:25.461Z,9.463054
2022-11-29T07:52:25.413Z,9.463051
2022-11-29T07:53:25.495Z,9.463064
2022-11-29T07:54:25.412Z,9.463090
2022-11-29T07:55:25.873Z,9.463038
2022-11-29T07:56:25.374Z,9.463064
2022-11-29T07:57:25.394Z,9.463085
2022-11-29T07:58:25.396Z,9.463079
2022-11-29T07:59:25.381Z,9.463045
2022-11-29T08:00:27.622Z,9.463004
2022-11-29T08:01:25.393Z,9.463032
2022-11-29T08:02:25.412Z,9.463030
2022-11-29T08:03:25.517Z,9.463086
2022-11-29T08:04:25.326Z,9.463106
2022-11-29T08:05:25.340Z,9.463102
2022-11-29T08:06:25.339Z,9.463108
2022-11-29T08:07:25.536Z,9.463065
2022-11-29T08:08:25.299Z,9.463007
2022-11-29T08:09:25.325Z,9.463019
2022-11-29T08:10:25.401Z,9.463073
2022-11-29T08:11:25.360Z,9.463109
2022-11-29T08:12:25.283Z,9.463101
2022-11-29T08:13:25.315Z,9.463128
2022-11-29T08:14:25.284Z,9.463136
2022-11-29T08:15:25.295Z,9.463120
2022-11-29T08:16:25.328Z,9.463103
2022-11-29T08:17:25.952Z,9.463091
2022-11-29T08:18:25.236Z,9.463082
2022-11-29T08:19:25.259Z,9.463071
2022-11-29T08:20:25.378Z,9.463070
2022-11-29T08:21:25.261Z,9.463073
2022-11-29T08:22:25.217Z,9.463089
2022-11-29T08:23:25.757Z,9.463095
2022-11-29T08:24:25.240Z,9.463108
2022-11-29T08:25:25.210Z,9.463109
2022-11-29T08:26:29.821Z,9.463055
2022-11-29T08:27:26.183Z,9.463055
2022-11-29T08:28:25.179Z,9.463101
2022-11-29T08:29:25.194Z,9.463101
2022-11-29T08:30:25.221Z,9.463086
2022-11-29T08:31:25.192Z,9.463033
2022-11-29T08:32:25.151Z,9.462996
2022-11-29T08:33:25.246Z,9.462987
2022-11-29T08:34:25.137Z,9.462969
2022-11-29T08:35:25.157Z,9.463014
2022-11-29T08:36:25.180Z,9.463055
2022-11-29T08:37:25.131Z,9.463008
2022-11-29T08:38:25.478Z,9.463001
2022-11-29T08:39:25.108Z,9.463018
2022-11-29T08:40:25.104Z,9.462978
2022-11-29T08:41:25.095Z,9.463004
2022-11-29T08:42:25.094Z,9.462986
2022-11-29T08:43:25.739Z,9.463004
2022-11-29T08:44:25.066Z,9.463032
2022-11-29T08:45:25.168Z,9.463048
2022-11-29T08:46:25.090Z,9.463022
2022-11-29T08:47:25.462Z,9.463040
2022-11-29T08:48:25.060Z,9.463018
2022-11-29T08:49:25.172Z,9.463034
2022-11-29T08:50:25.046Z,9.463011
2022-11-29T08:51:25.070Z,9.463003
2022-11-29T08:52:25.989Z,9.463001
2022-11-29T08:53:25.033Z,9.462996
2022-11-29T08:54:25.016Z,9.463028
2022-11-29T08:55:25.018Z,9.463045
2022-11-29T08:57:10.257Z,9.462990
2022-11-29T08:57:41.592Z,9.463042
2022-11-29T08:58:25.986Z,9.463011
2022-11-29T08:59:24.975Z,9.463004
2022-11-29T09:00:24.990Z,9.463016
2022-11-29T09:01:25.109Z,9.463047
2022-11-29T09:02:25.053Z,9.463028
2022-11-29T09:03:25.407Z,9.463026
2022-11-29T09:04:24.934Z,9.463017
2022-11-29T09:05:24.975Z,9.463056
2022-11-29T09:06:24.923Z,9.463039
2022-11-29T09:07:24.998Z,9.463078
2022-11-29T09:08:25.347Z,9.463106
2022-11-29T09:09:46.562Z,9.463098
2022-11-29T09:10:24.943Z,9.463078
2022-11-29T09:11:24.900Z,9.463056
2022-11-29T09:12:24.894Z,9.462998
2022-11-29T09:13:24.893Z,9.462996
2022-11-29T09:14:24.878Z,9.463056
2022-11-29T09:15:24.931Z,9.463001
2022-11-29T09:16:24.890Z,9.463014
2022-11-29T09:17:24.885Z,9.463061
2022-11-29T09:18:24.837Z,9.463018
2022-11-29T09:19:25.458Z,9.463004
2022-11-29T09:20:24.841Z,9.462987
2022-11-29T09:21:24.841Z,9.463003
2022-11-29T09:22:24.838Z,9.463046
2022-11-29T09:23:24.918Z,9.463035
2022-11-29T09:24:24.794Z,9.463033
2022-11-29T09:25:25.233Z,9.463043
2022-11-29T09:26:24.791Z,9.463033
2022-11-29T09:27:24.783Z,9.463015
2022-11-29T09:28:24.793Z,9.463033
2022-11-29T09:29:24.771Z,9.463031
2022-11-29T09:30:24.906Z,9.463043
2022-11-29T09:31:24.828Z,9.463045
2022-11-29T09:32:25.169Z,9.463031
2022-11-29T09:33:24.758Z,9.463018
2022-11-29T09:34:24.820Z,9.463091
2022-11-29T09:35:24.730Z,9.463008
2022-11-29T09:36:28.424Z,9.463018
2022-11-29T09:37:24.711Z,9.463017
2022-11-29T09:38:24.733Z,9.463034
2022-11-29T09:39:24.758Z,9.463047
2022-11-29T09:40:24.703Z,9.463066
2022-11-29T09:41:24.713Z,9.463056
2022-11-29T09:42:24.718Z,9.463023
2022-11-29T09:43:24.686Z,9.463003
2022-11-29T09:44:25.888Z,9.463040
2022-11-29T09:45:24.674Z,9.463040
2022-11-29T09:46:24.696Z,9.463046
2022-11-29T09:47:24.655Z,9.462997
2022-11-29T09:48:24.692Z,9.463005
2022-11-29T09:49:24.636Z,9.463026
2022-11-29T09:50:24.695Z,9.463020
2022-11-29T09:51:24.656Z,9.463014
2022-11-29T09:52:24.673Z,9.463026
2022-11-29T09:53:25.870Z,9.463004
2022-11-29T09:54:24.624Z,9.462990
2022-11-29T09:55:24.653Z,9.463013
2022-11-29T09:56:24.626Z,9.463026
2022-11-29T09:57:24.594Z,9.463049
2022-11-29T09:58:24.582Z,9.463033
2022-11-29T09:59:27.441Z,9.463004
2022-11-29T10:00:24.586Z,9.463011
2022-11-29T10:01:24.673Z,9.462960
2022-11-29T10:02:24.617Z,9.462989
2022-11-29T10:03:24.561Z,9.463016
2022-11-29T10:04:25.270Z,9.462976
2022-11-29T10:05:24.531Z,9.463031
2022-11-29T10:06:24.523Z,9.463024
2022-11-29T10:07:24.599Z,9.463000
2022-11-29T10:08:24.532Z,9.463034
2022-11-29T10:09:24.495Z,9.463049
2022-11-29T10:10:24.548Z,9.463039
2022-11-29T10:11:24.530Z,9.463061
2022-11-29T10:12:24.483Z,9.463068
2022-11-29T10:13:24.469Z,9.463030
2022-11-29T10:14:24.489Z,9.463046
2022-11-29T10:15:25.156Z,9.463051
2022-11-29T10:16:24.568Z,9.463003
2022-11-29T10:17:24.454Z,9.463034
2022-11-29T10:18:24.445Z,9.463031
2022-11-29T10:19:24.429Z,9.463044
2022-11-29T10:20:24.476Z,9.463028
2022-11-29T10:21:24.418Z,9.463056
2022-11-29T10:22:25.317Z,9.462968
2022-11-29T10:23:24.428Z,9.462948
2022-11-29T10:24:24.403Z,9.463010
2022-11-29T10:25:24.403Z,9.463016
2022-11-29T10:26:24.620Z,9.463013
2022-11-29T10:27:24.414Z,9.463015
2022-11-29T10:28:24.370Z,9.462974
2022-11-29T10:29:24.384Z,9.462963
2022-11-29T10:30:24.438Z,9.462997
2022-11-29T10:31:24.774Z,9.463055
2022-11-29T10:32:26.197Z,9.463127
2022-11-29T10:33:24.356Z,9.463106
2022-11-29T10:34:24.329Z,9.463019
2022-11-29T10:35:24.344Z,9.463035
2022-11-29T10:36:24.307Z,9.463110
2022-11-29T10:37:24.327Z,9.462967
2022-11-29T10:38:32.102Z,9.463076
2022-11-29T10:39:25.296Z,9.463022
2022-11-29T10:40:24.296Z,9.463070
2022-11-29T10:41:24.286Z,9.463012
2022-11-29T10:42:24.512Z,9.462983
2022-11-29T10:43:24.316Z,9.463054
2022-11-29T10:44:24.276Z,9.462967
2022-11-29T10:45:24.261Z,9.462996
2022-11-29T10:46:24.271Z,9.463026
2022-11-29T10:47:24.255Z,9.463039
2022-11-29T10:48:24.313Z,9.463049
2022-11-29T10:49:24.978Z,9.463036
2022-11-29T10:50:24.224Z,9.463001
2022-11-29T10:51:24.210Z,9.463005
2022-11-29T10:52:24.207Z,9.462988
2022-11-29T10:53:24.245Z,9.463031
2022-11-29T10:54:24.200Z,9.463007
2022-11-29T10:55:24.233Z,9.462994
2022-11-29T10:56:24.292Z,9.463045
2022-11-29T10:57:24.255Z,9.463001
2022-11-29T10:58:27.947Z,9.463016
2022-11-29T10:59:24.256Z,9.462997
2022-11-29T11:00:24.195Z,9.463084
2022-11-29T11:01:24.263Z,9.463038
2022-11-29T11:02:25.128Z,9.463030
2022-11-29T11:03:24.129Z,9.463063
2022-11-29T11:04:24.122Z,9.463001
2022-11-29T11:05:25.004Z,9.463036
2022-11-29T11:06:24.188Z,9.463040
2022-11-29T11:07:24.663Z,9.463020
2022-11-29T11:08:24.478Z,9.463031
2022-11-29T11:09:24.233Z,9.463002
2022-11-29T11:10:24.080Z,9.462910
2022-11-29T11:11:24.091Z,9.463043
2022-11-29T11:12:24.079Z,9.463001
2022-11-29T11:13:24.059Z,9.463022
2022-11-29T11:14:24.034Z,9.462983
2022-11-29T11:15:24.087Z,9.462908
2022-11-29T11:16:25.086Z,9.462946
2022-11-29T11:17:24.046Z,9.463027
2022-11-29T11:18:24.122Z,9.463143
2022-11-29T11:19:24.538Z,9.463138
2022-11-29T11:20:23.992Z,9.462968
2022-11-29T11:21:24.145Z,9.463292
2022-11-29T11:22:23.989Z,9.463437
2022-11-29T11:23:24.028Z,9.463430
2022-11-29T11:24:23.988Z,9.463131
2022-11-29T11:25:23.963Z,9.463046
2022-11-29T11:26:24.012Z,9.463005
2022-11-29T11:27:24.050Z,9.463012
2022-11-29T11:28:23.940Z,9.463013
2022-11-29T11:29:23.951Z,9.463024
2022-11-29T11:30:23.940Z,9.462991
2022-11-29T11:31:24.020Z,9.463019
2022-11-29T11:32:23.935Z,9.463052
2022-11-29T11:33:24.740Z,9.463100
2022-11-29T11:34:23.903Z,9.463037
2022-11-29T11:35:23.914Z,9.463035
2022-11-29T11:36:23.906Z,9.463012
2022-11-29T11:37:23.899Z,9.462976
2022-11-29T11:38:23.887Z,9.462990
2022-11-29T11:39:23.919Z,9.462996
2022-11-29T11:40:23.993Z,9.463033
2022-11-29T11:41:23.865Z,9.463002
2022-11-29T11:42:24.479Z,9.462987
2022-11-29T11:43:23.861Z,9.462987
2022-11-29T11:44:46.378Z,9.462989